TAF Text Data
IDs:
Format:
Raw Decoded Include METAR

Data at: 1352 UTC 26 Feb 2021

KRSW 261120Z 2612/2712 04004KT P6SM SKC
  FM261400 11008KT P6SM SKC
  FM261800 15007KT P6SM SCT040
  FM262200 20007KT P6SM BKN040
  FM270100 VRB03KT P6SM FEW035